createdAt,value
2023-04-17T00:01:47.691Z,3.08
2023-04-17T00:04:16.107Z,3.20
2023-04-17T00:06:44.382Z,2.88
2023-04-17T00:09:13.908Z,1.83
2023-04-17T00:11:42.314Z,2.88
2023-04-17T00:14:10.542Z,3.58
2023-04-17T00:16:38.987Z,3.45
2023-04-17T00:19:07.230Z,2.05
2023-04-17T00:21:35.469Z,2.47
2023-04-17T00:24:03.743Z,2.80
2023-04-17T00:26:33.297Z,3.50
2023-04-17T00:29:02.869Z,2.20
2023-04-17T00:31:31.484Z,3.90
2023-04-17T00:34:02.076Z,2.25
2023-04-17T00:36:32.694Z,1.70
2023-04-17T00:39:01.433Z,3.80
2023-04-17T00:41:29.690Z,5.00
2023-04-17T00:43:57.960Z,1.60
2023-04-17T00:46:26.167Z,3.70
2023-04-17T00:48:54.411Z,2.83
2023-04-17T00:51:22.746Z,2.85
2023-04-17T00:53:51.076Z,2.47
2023-04-17T00:56:19.258Z,1.40
2023-04-17T00:58:48.129Z,2.10
2023-04-17T01:01:16.524Z,1.70
2023-04-17T01:03:45.828Z,1.58
2023-04-17T01:06:14.249Z,1.98
2023-04-17T01:08:44.006Z,3.22
2023-04-17T01:11:12.871Z,1.65
2023-04-17T01:13:51.558Z,2.45
2023-04-17T01:16:20.718Z,1.83
2023-04-17T01:18:49.286Z,2.85
2023-04-17T01:21:17.588Z,2.15
2023-04-17T01:23:52.488Z,1.88
2023-04-17T01:26:23.486Z,1.23
2023-04-17T01:28:57.486Z,1.92
2023-04-17T01:31:28.014Z,4.03
2023-04-17T01:33:56.769Z,2.28
2023-04-17T01:36:24.960Z,2.83
2023-04-17T01:38:53.144Z,2.95
2023-04-17T01:41:21.360Z,2.53
2023-04-17T01:43:49.653Z,1.73
2023-04-17T01:46:17.981Z,3.20
2023-04-17T01:48:46.262Z,2.58
2023-04-17T01:51:14.488Z,1.65
2023-04-17T01:53:42.880Z,1.73
2023-04-17T01:56:11.336Z,2.67
2023-04-17T01:58:39.592Z,2.28
2023-04-17T02:01:07.830Z,2.30
2023-04-17T02:03:36.270Z,2.05
2023-04-17T02:06:04.759Z,1.52
2023-04-17T02:08:33.067Z,3.13
2023-04-17T02:11:01.260Z,1.73
2023-04-17T02:13:29.652Z,1.83
2023-04-17T02:15:57.972Z,4.03
2023-04-17T02:18:27.329Z,1.77
2023-04-17T02:20:55.476Z,1.77
2023-04-17T02:23:23.704Z,3.33
2023-04-17T02:25:52.477Z,2.08
2023-04-17T02:28:20.709Z,1.05
2023-04-17T02:30:48.926Z,2.63
2023-04-17T02:33:17.187Z,1.42
2023-04-17T02:35:45.483Z,2.15
2023-04-17T02:38:13.804Z,1.55
2023-04-17T02:40:42.102Z,2.03
2023-04-17T02:43:10.409Z,2.25
2023-04-17T02:45:38.630Z,3.45
2023-04-17T02:48:07.249Z,1.10
2023-04-17T02:50:35.522Z,1.30
2023-04-17T02:53:03.771Z,2.50
2023-04-17T02:55:31.987Z,1.08
2023-04-17T02:58:00.140Z,2.28
2023-04-17T03:00:29.923Z,2.08
2023-04-17T03:02:58.340Z,3.30
2023-04-17T03:05:26.799Z,1.88
2023-04-17T03:07:54.957Z,2.00
2023-04-17T03:10:23.119Z,1.98
2023-04-17T03:12:51.554Z,5.00
2023-04-17T03:15:19.782Z,4.20
2023-04-17T03:17:48.362Z,1.90
2023-04-17T03:20:16.875Z,1.65
2023-04-17T03:22:45.085Z,1.48
2023-04-17T03:25:13.577Z,2.78
2023-04-17T03:27:41.751Z,3.22
2023-04-17T03:30:10.528Z,1.48
2023-04-17T03:32:38.892Z,1.88
2023-04-17T03:35:07.333Z,2.15
2023-04-17T03:37:35.562Z,3.00
2023-04-17T03:40:06.261Z,2.80
2023-04-17T03:42:34.475Z,1.80
2023-04-17T03:45:04.175Z,4.07
2023-04-17T03:47:32.413Z,2.42
2023-04-17T03:50:00.699Z,1.65
2023-04-17T03:52:28.880Z,3.53
2023-04-17T03:54:57.718Z,4.97
2023-04-17T03:57:25.900Z,2.88
2023-04-17T03:59:54.097Z,2.33
2023-04-17T04:02:22.614Z,2.78
2023-04-17T04:04:51.253Z,3.55
2023-04-17T04:07:19.520Z,2.42
2023-04-17T04:09:48.079Z,1.77
2023-04-17T04:12:16.382Z,2.40
2023-04-17T04:14:44.625Z,2.20
2023-04-17T04:17:12.838Z,2.42
2023-04-17T04:19:41.307Z,2.63
2023-04-17T04:22:09.613Z,3.42
2023-04-17T04:24:37.920Z,2.20
2023-04-17T04:27:06.295Z,3.97
2023-04-17T04:29:34.845Z,2.90
2023-04-17T04:32:03.170Z,1.90
2023-04-17T04:34:31.507Z,4.78
2023-04-17T04:36:59.944Z,3.47
2023-04-17T04:39:30.715Z,2.40
2023-04-17T04:42:06.589Z,3.83
2023-04-17T04:44:34.777Z,4.30
2023-04-17T04:47:03.121Z,4.20
2023-04-17T04:49:31.477Z,4.82
2023-04-17T04:51:59.725Z,4.72
2023-04-17T04:54:28.045Z,2.72
2023-04-17T04:56:56.509Z,2.75
2023-04-17T04:59:24.951Z,2.50
2023-04-17T05:01:53.219Z,3.45
2023-04-17T05:04:21.541Z,5.10
2023-04-17T05:06:49.780Z,4.47
2023-04-17T05:09:18.170Z,4.85
2023-04-17T05:11:47.121Z,3.67
2023-04-17T05:14:15.346Z,1.80
2023-04-17T05:16:44.073Z,3.50
2023-04-17T05:19:12.870Z,2.47
2023-04-17T05:21:41.166Z,2.97
2023-04-17T05:24:09.439Z,3.80
2023-04-17T05:26:37.628Z,3.22
2023-04-17T05:29:05.932Z,5.50
2023-04-17T05:31:34.147Z,5.75
2023-04-17T05:34:02.332Z,2.90
2023-04-17T05:36:32.416Z,1.85
2023-04-17T05:39:00.628Z,4.45
2023-04-17T05:41:31.621Z,5.10
2023-04-17T05:43:59.854Z,2.17
2023-04-17T05:46:28.148Z,2.05
2023-04-17T05:48:56.368Z,4.50
2023-04-17T05:51:24.581Z,2.67
2023-04-17T05:53:52.774Z,3.67
2023-04-17T05:56:21.160Z,2.45
2023-04-17T05:58:49.348Z,3.92
2023-04-17T06:01:23.218Z,6.45
2023-04-17T06:03:51.926Z,4.63
2023-04-17T06:06:20.226Z,4.15
2023-04-17T06:08:48.427Z,5.20
2023-04-17T06:11:16.765Z,3.22
2023-04-17T06:13:44.935Z,5.10
2023-04-17T06:16:13.115Z,4.53
2023-04-17T06:18:42.316Z,4.45
2023-04-17T06:21:11.006Z,3.67
2023-04-17T06:23:39.221Z,3.30
2023-04-17T06:26:07.424Z,2.22
2023-04-17T06:28:35.585Z,3.50
2023-04-17T06:31:03.795Z,2.45
2023-04-17T06:33:32.051Z,3.97
2023-04-17T06:36:00.193Z,3.55
2023-04-17T06:38:28.331Z,3.97
2023-04-17T06:40:56.501Z,3.60
2023-04-17T06:43:24.852Z,6.68
2023-04-17T06:45:53.162Z,3.17
2023-04-17T06:48:21.470Z,4.18
2023-04-17T06:50:50.204Z,2.45
2023-04-17T06:53:18.372Z,3.10
2023-04-17T06:55:46.553Z,4.47
2023-04-17T06:58:15.042Z,3.85
2023-04-17T07:00:43.216Z,7.10
2023-04-17T07:03:12.038Z,3.88
2023-04-17T07:05:40.307Z,2.50
2023-04-17T07:08:08.487Z,2.85
2023-04-17T07:10:36.760Z,2.83
2023-04-17T07:13:04.921Z,4.82
2023-04-17T07:15:33.207Z,2.55
2023-04-17T07:18:01.597Z,4.68
2023-04-17T07:20:29.877Z,2.67
2023-04-17T07:22:58.173Z,4.18
2023-04-17T07:25:26.485Z,2.90
2023-04-17T07:27:57.713Z,3.50
2023-04-17T07:30:26.144Z,3.58
2023-04-17T07:32:54.462Z,2.97
2023-04-17T07:35:23.308Z,3.92
2023-04-17T07:37:51.632Z,4.13
2023-04-17T07:40:20.252Z,4.75
2023-04-17T07:42:48.482Z,3.78
2023-04-17T07:45:16.913Z,3.05
2023-04-17T07:47:45.148Z,4.28
2023-04-17T07:50:13.770Z,5.43
2023-04-17T07:52:41.989Z,3.88
2023-04-17T07:55:10.566Z,5.47
2023-04-17T07:57:43.345Z,4.13
2023-04-17T08:00:14.838Z,5.30
2023-04-17T08:02:46.812Z,5.15
2023-04-17T08:05:15.244Z,4.20
2023-04-17T08:07:44.195Z,1.90
2023-04-17T08:10:12.480Z,5.07
2023-04-17T08:12:41.187Z,7.10
2023-04-17T08:15:10.267Z,3.42
2023-04-17T08:17:38.579Z,4.75
2023-04-17T08:20:09.198Z,6.25
2023-04-17T08:22:44.350Z,2.63
2023-04-17T08:25:13.671Z,3.33
2023-04-17T08:27:43.322Z,4.28
2023-04-17T08:30:16.230Z,4.80
2023-04-17T08:35:17.978Z,3.20
2023-04-17T08:37:49.181Z,3.60
2023-04-17T08:40:19.439Z,3.92
2023-04-17T08:42:48.583Z,4.10
2023-04-17T08:45:17.015Z,4.15
2023-04-17T08:47:45.304Z,4.47
2023-04-17T08:50:21.117Z,5.00
2023-04-17T08:52:51.243Z,4.95
2023-04-17T08:55:23.124Z,4.63
2023-04-17T08:58:05.022Z,2.95
2023-04-17T09:00:35.423Z,3.55
2023-04-17T09:03:05.885Z,4.00
2023-04-17T09:05:34.671Z,3.60
2023-04-17T09:08:18.585Z,5.65
2023-04-17T09:10:48.450Z,4.88
2023-04-17T09:13:18.893Z,4.43
2023-04-17T09:15:49.057Z,3.28
2023-04-17T09:18:33.919Z,3.15
2023-04-17T09:21:03.193Z,7.53
2023-04-17T09:23:46.320Z,4.53
2023-04-17T09:26:16.564Z,6.80
2023-04-17T09:29:01.224Z,3.40
2023-04-17T09:31:35.391Z,2.50
2023-04-17T09:34:05.121Z,3.00
2023-04-17T09:36:35.531Z,2.58
2023-04-17T09:39:17.757Z,4.07
2023-04-17T09:41:46.360Z,5.57
2023-04-17T09:44:29.443Z,3.85
2023-04-17T09:46:58.620Z,4.78
2023-04-17T09:49:26.829Z,4.85
2023-04-17T09:51:55.294Z,3.33
2023-04-17T09:54:24.441Z,3.95
2023-04-17T09:56:56.513Z,2.72
2023-04-17T09:59:25.805Z,4.10
2023-04-17T10:01:55.070Z,3.97
2023-04-17T10:04:23.907Z,3.95
2023-04-17T10:06:52.198Z,2.88
2023-04-17T10:09:20.546Z,3.85
2023-04-17T10:11:49.355Z,4.95
2023-04-17T10:14:28.847Z,2.78
2023-04-17T10:16:57.330Z,3.58
2023-04-17T10:19:33.815Z,7.10
2023-04-17T10:22:18.829Z,3.35
2023-04-17T10:27:29.388Z,2.95
2023-04-17T10:29:59.211Z,5.72
2023-04-17T10:32:32.155Z,4.63
2023-04-17T10:35:02.657Z,3.47
2023-04-17T10:37:49.308Z,2.58
2023-04-17T10:40:30.498Z,3.40
2023-04-17T10:43:18.677Z,3.08
2023-04-17T10:46:06.849Z,3.85
2023-04-17T10:48:39.188Z,3.50
2023-04-17T10:51:43.302Z,4.65
2023-04-17T10:54:11.843Z,5.70
2023-04-17T10:56:49.110Z,4.15
2023-04-17T10:59:19.833Z,3.72
2023-04-17T11:01:51.764Z,3.40
2023-04-17T11:04:31.300Z,3.92
2023-04-17T11:07:00.227Z,4.60
2023-04-17T11:09:30.298Z,2.15
2023-04-17T11:12:04.662Z,4.00
2023-04-17T11:14:33.162Z,3.70
2023-04-17T11:17:02.675Z,3.85
2023-04-17T11:19:33.363Z,3.45
2023-04-17T11:22:03.445Z,3.20
2023-04-17T11:24:32.984Z,6.03
2023-04-17T11:27:04.185Z,4.97
2023-04-17T11:29:32.392Z,3.42
2023-04-17T11:32:02.068Z,2.40
2023-04-17T11:34:30.430Z,4.07
2023-04-17T11:37:01.088Z,3.38
2023-04-17T11:39:34.376Z,5.00
2023-04-17T11:42:05.927Z,3.45
2023-04-17T11:44:34.159Z,2.95
2023-04-17T11:47:04.271Z,2.80
2023-04-17T11:49:40.354Z,2.70
2023-04-17T11:52:08.637Z,3.20
2023-04-17T11:54:38.563Z,3.55
2023-04-17T11:57:16.395Z,3.72
2023-04-17T11:59:46.275Z,5.70
2023-04-17T12:02:15.903Z,3.30
2023-04-17T12:04:44.336Z,3.08
2023-04-17T12:07:25.318Z,3.20
2023-04-17T12:09:58.429Z,2.92
2023-04-17T12:12:26.585Z,5.18
2023-04-17T12:14:54.920Z,3.33
2023-04-17T12:17:23.182Z,6.20
2023-04-17T12:19:51.798Z,3.53
2023-04-17T12:22:20.079Z,2.33
2023-04-17T12:24:48.410Z,6.85
2023-04-17T12:27:16.936Z,3.58
2023-04-17T12:29:45.316Z,5.47
2023-04-17T12:32:14.081Z,3.95
2023-04-17T12:34:42.367Z,2.72
2023-04-17T12:37:10.670Z,2.67
2023-04-17T12:39:38.777Z,3.90
2023-04-17T12:42:06.929Z,3.80
2023-04-17T12:44:35.140Z,2.40
2023-04-17T12:47:03.400Z,3.60
2023-04-17T12:49:31.603Z,3.25
2023-04-17T12:52:02.475Z,6.43
2023-04-17T12:54:31.583Z,1.83
2023-04-17T12:57:00.074Z,3.30
2023-04-17T12:59:28.239Z,4.22
2023-04-17T13:01:56.599Z,4.10
2023-04-17T13:04:24.907Z,5.13
2023-04-17T13:06:53.227Z,4.70
2023-04-17T13:09:21.394Z,5.68
2023-04-17T13:11:49.546Z,5.20
2023-04-17T13:14:17.757Z,7.68
2023-04-17T13:16:47.290Z,28.13
2023-04-17T13:19:15.677Z,6.38
2023-04-17T13:21:43.950Z,7.72
2023-04-17T13:24:15.376Z,7.68
2023-04-17T13:26:43.828Z,9.15
2023-04-17T13:29:12.397Z,7.60
2023-04-17T13:31:40.862Z,8.30
2023-04-17T13:34:10.809Z,10.05
2023-04-17T13:36:39.408Z,8.48
2023-04-17T13:39:07.676Z,10.48
2023-04-17T13:41:36.087Z,12.65
2023-04-17T13:44:04.476Z,11.48
2023-04-17T13:46:34.297Z,8.35
2023-04-17T13:49:02.538Z,9.73
2023-04-17T13:51:30.828Z,10.07
2023-04-17T13:54:01.958Z,10.60
2023-04-17T13:56:30.237Z,11.65
2023-04-17T13:58:59.255Z,12.13
2023-04-17T14:01:27.722Z,12.05
2023-04-17T14:03:56.027Z,10.60
2023-04-17T14:06:24.313Z,12.55
2023-04-17T14:08:52.509Z,15.75
2023-04-17T14:11:20.729Z,15.90
2023-04-17T14:13:48.992Z,11.02
2023-04-17T14:16:17.301Z,13.63
2023-04-17T14:18:48.814Z,14.18
2023-04-17T14:21:17.958Z,11.20
2023-04-17T14:23:47.685Z,11.73
2023-04-17T14:26:16.152Z,13.00
2023-04-17T14:28:44.291Z,13.65
2023-04-17T14:31:12.497Z,10.98
2023-04-17T14:33:40.808Z,11.57
2023-04-17T14:36:09.370Z,10.95
2023-04-17T14:38:37.720Z,10.98
2023-04-17T14:41:06.201Z,11.20
2023-04-17T14:43:34.438Z,12.23
2023-04-17T14:46:02.624Z,8.73
2023-04-17T14:48:32.701Z,10.18
2023-04-17T14:51:03.006Z,10.32
2023-04-17T14:53:31.248Z,8.93
2023-04-17T14:56:00.875Z,9.88
2023-04-17T14:58:29.055Z,10.30
2023-04-17T15:00:57.312Z,10.38
2023-04-17T15:03:25.904Z,11.20
2023-04-17T15:05:54.799Z,10.98
2023-04-17T15:08:22.972Z,8.23
2023-04-17T15:10:51.717Z,9.68
2023-04-17T15:13:20.008Z,10.63
2023-04-17T15:15:48.533Z,10.07
2023-04-17T15:18:16.823Z,12.15
2023-04-17T15:20:45.039Z,14.52
2023-04-17T15:23:13.297Z,13.15
2023-04-17T15:25:41.543Z,11.02
2023-04-17T15:28:10.125Z,11.40
2023-04-17T15:30:38.409Z,9.73
2023-04-17T15:33:09.237Z,10.45
2023-04-17T15:35:39.137Z,11.63
2023-04-17T15:38:08.601Z,10.82
2023-04-17T15:40:36.817Z,9.85
2023-04-17T15:43:04.994Z,10.75
2023-04-17T15:45:33.260Z,8.55
2023-04-17T15:48:02.436Z,7.63
2023-04-17T15:50:30.797Z,8.38
2023-04-17T15:52:58.976Z,10.73
2023-04-17T15:55:27.237Z,8.63
2023-04-17T15:57:55.508Z,7.63
2023-04-17T16:00:23.795Z,6.13
2023-04-17T16:02:52.873Z,8.00
2023-04-17T16:05:21.793Z,8.45
2023-04-17T16:07:50.030Z,7.38
2023-04-17T16:10:19.712Z,5.85
2023-04-17T16:12:48.322Z,6.35
2023-04-17T16:15:18.580Z,6.13
2023-04-17T16:17:49.221Z,7.20
2023-04-17T16:20:18.050Z,5.63
2023-04-17T16:22:46.256Z,13.98
2023-04-17T16:25:14.484Z,6.95
2023-04-17T16:27:42.750Z,7.45
2023-04-17T16:30:11.912Z,6.28
2023-04-17T16:32:40.216Z,5.25
2023-04-17T16:35:08.802Z,5.63
2023-04-17T16:37:37.158Z,6.35
2023-04-17T16:40:05.845Z,4.93
2023-04-17T16:42:34.555Z,7.10
2023-04-17T16:45:02.810Z,6.55
2023-04-17T16:47:31.788Z,4.72
2023-04-17T16:50:00.005Z,6.43
2023-04-17T16:52:28.220Z,7.57
2023-04-17T16:54:56.489Z,7.93
2023-04-17T16:57:24.723Z,6.50
2023-04-17T16:59:52.914Z,4.00
2023-04-17T17:02:21.619Z,9.73
2023-04-17T17:04:50.373Z,6.75
2023-04-17T17:07:18.518Z,5.05
2023-04-17T17:09:46.867Z,5.47
2023-04-17T17:12:15.125Z,6.18
2023-04-17T17:14:43.297Z,9.73
2023-04-17T17:17:11.531Z,7.38
2023-04-17T17:19:39.711Z,4.60
2023-04-17T17:22:07.934Z,4.47
2023-04-17T17:24:37.024Z,7.90
2023-04-17T17:27:05.299Z,6.80
2023-04-17T17:29:33.691Z,5.88
2023-04-17T17:32:02.030Z,4.90
2023-04-17T17:34:30.578Z,9.95
2023-04-17T17:36:59.592Z,6.15
2023-04-17T17:39:27.791Z,6.75
2023-04-17T17:41:57.260Z,4.85
2023-04-17T17:44:25.609Z,5.15
2023-04-17T17:46:53.805Z,5.88
2023-04-17T17:49:22.046Z,5.38
2023-04-17T17:51:50.239Z,4.50
2023-04-17T17:54:18.406Z,8.63
2023-04-17T17:56:47.088Z,5.65
2023-04-17T17:59:15.233Z,7.13
2023-04-17T18:01:43.471Z,5.57
2023-04-17T18:04:12.248Z,6.85
2023-04-17T18:06:41.832Z,5.68
2023-04-17T18:09:10.122Z,6.03
2023-04-17T18:11:38.902Z,3.97
2023-04-17T18:14:07.477Z,5.38
2023-04-17T18:16:37.057Z,8.18
2023-04-17T18:19:05.866Z,5.28
2023-04-17T18:21:34.624Z,4.22
2023-04-17T18:24:02.919Z,6.32
2023-04-17T18:26:31.210Z,6.88
2023-04-17T18:28:59.407Z,5.50
2023-04-17T18:31:29.028Z,5.55
2023-04-17T18:33:57.409Z,7.68
2023-04-17T18:36:25.584Z,3.72
2023-04-17T18:38:53.873Z,5.47
2023-04-17T18:41:22.332Z,8.38
2023-04-17T18:43:50.554Z,9.30
2023-04-17T18:46:19.478Z,7.78
2023-04-17T18:48:47.986Z,4.45
2023-04-17T18:51:16.325Z,4.68
2023-04-17T18:53:44.609Z,5.40
2023-04-17T18:56:15.687Z,4.18
2023-04-17T18:58:44.021Z,4.57
2023-04-17T19:01:12.293Z,5.63
2023-04-17T19:03:41.144Z,5.05
2023-04-17T19:06:09.545Z,3.67
2023-04-17T19:08:38.142Z,7.05
2023-04-17T19:11:06.874Z,5.18
2023-04-17T19:13:35.051Z,6.75
2023-04-17T19:16:03.325Z,7.80
2023-04-17T19:18:31.599Z,6.63
2023-04-17T19:20:59.748Z,6.00
2023-04-17T19:23:28.013Z,4.95
2023-04-17T19:25:57.169Z,8.48
2023-04-17T19:28:26.317Z,7.15
2023-04-17T19:30:54.600Z,9.98
2023-04-17T19:33:23.820Z,7.68
2023-04-17T19:35:53.150Z,6.63
2023-04-17T19:38:22.233Z,6.07
2023-04-17T19:41:15.346Z,3.90
2023-04-17T19:43:43.908Z,6.45
2023-04-17T19:46:12.227Z,5.57
2023-04-17T19:48:42.983Z,3.60
2023-04-17T19:51:12.286Z,4.05
2023-04-17T19:53:42.636Z,4.45
2023-04-17T19:56:11.599Z,5.88
2023-04-17T19:58:41.079Z,5.75
2023-04-17T20:01:09.423Z,7.18
2023-04-17T20:03:39.982Z,6.30
2023-04-17T20:06:09.136Z,6.57
2023-04-17T20:08:37.511Z,5.25
2023-04-17T20:11:07.079Z,7.03
2023-04-17T20:13:35.375Z,4.38
2023-04-17T20:16:03.773Z,2.85
2023-04-17T20:18:32.499Z,4.50
2023-04-17T20:21:04.247Z,4.30
2023-04-17T20:23:32.509Z,4.03
2023-04-17T20:26:00.698Z,5.85
2023-04-17T20:28:29.937Z,3.63
2023-04-17T20:30:58.257Z,4.45
2023-04-17T20:33:26.621Z,4.82
2023-04-17T20:35:54.858Z,6.55
2023-04-17T20:38:23.091Z,5.72
2023-04-17T20:40:51.361Z,3.92
2023-04-17T20:43:19.833Z,2.83
2023-04-17T20:45:50.102Z,6.57
2023-04-17T20:48:18.547Z,6.00
2023-04-17T20:50:47.400Z,7.97
2023-04-17T20:53:15.595Z,5.45
2023-04-17T20:55:43.769Z,4.88
2023-04-17T20:58:12.042Z,6.00
2023-04-17T21:00:50.615Z,7.28
2023-04-17T21:03:26.837Z,4.97
2023-04-17T21:05:55.696Z,5.78
2023-04-17T21:08:24.026Z,5.47
2023-04-17T21:10:52.476Z,4.05
2023-04-17T21:13:20.635Z,6.93
2023-04-17T21:15:48.830Z,4.72
2023-04-17T21:18:17.084Z,5.00
2023-04-17T21:20:45.396Z,4.50
2023-04-17T21:23:13.757Z,3.13
2023-04-17T21:25:41.956Z,5.30
2023-04-17T21:28:10.167Z,4.45
2023-04-17T21:30:38.397Z,5.85
2023-04-17T21:33:06.676Z,4.35
2023-04-17T21:35:37.269Z,4.32
2023-04-17T21:38:05.951Z,6.30
2023-04-17T21:40:36.793Z,4.60
2023-04-17T21:43:05.933Z,7.65
2023-04-17T21:45:34.167Z,4.35
2023-04-17T21:48:02.487Z,4.60
2023-04-17T21:50:30.759Z,4.63
2023-04-17T21:52:59.018Z,4.63
2023-04-17T21:55:27.312Z,4.07
2023-04-17T21:57:55.484Z,5.00
2023-04-17T22:00:23.735Z,4.93
2023-04-17T22:02:52.261Z,6.90
2023-04-17T22:05:20.597Z,5.57
2023-04-17T22:07:54.758Z,4.07
2023-04-17T22:10:24.682Z,7.30
2023-04-17T22:12:52.948Z,4.75
2023-04-17T22:15:21.315Z,8.10
2023-04-17T22:17:49.537Z,3.55
2023-04-17T22:20:17.989Z,7.07
2023-04-17T22:22:48.135Z,4.47
2023-04-17T22:25:16.449Z,4.40
2023-04-17T22:27:44.642Z,6.38
2023-04-17T22:30:13.130Z,4.50
2023-04-17T22:32:41.467Z,5.43
2023-04-17T22:35:10.197Z,6.32
2023-04-17T22:37:38.402Z,3.58
2023-04-17T22:40:07.344Z,5.57
2023-04-17T22:42:35.604Z,5.78
2023-04-17T22:45:03.843Z,5.90
2023-04-17T22:47:32.109Z,4.75
2023-04-17T22:50:00.675Z,5.38
2023-04-17T22:52:29.068Z,6.30
2023-04-17T22:54:57.294Z,4.40
2023-04-17T22:57:25.841Z,4.80
2023-04-17T22:59:54.063Z,2.88
2023-04-17T23:02:22.382Z,4.85
2023-04-17T23:04:50.665Z,7.18
2023-04-17T23:07:18.830Z,4.43
2023-04-17T23:09:47.510Z,5.30
2023-04-17T23:12:15.760Z,3.85
2023-04-17T23:14:45.051Z,3.08
2023-04-17T23:17:13.466Z,4.78
2023-04-17T23:19:41.700Z,4.38
2023-04-17T23:22:10.684Z,7.28
2023-04-17T23:24:38.948Z,5.40
2023-04-17T23:27:07.221Z,3.95
2023-04-17T23:29:35.468Z,4.95
2023-04-17T23:32:05.332Z,5.22
2023-04-17T23:34:35.508Z,3.83
2023-04-17T23:37:04.245Z,2.58
2023-04-17T23:39:32.414Z,3.42
2023-04-17T23:42:01.423Z,6.50
2023-04-17T23:44:29.649Z,5.65
2023-04-17T23:46:57.919Z,7.50
2023-04-17T23:49:26.264Z,2.90
2023-04-17T23:51:54.414Z,5.07
2023-04-17T23:54:22.694Z,3.72
2023-04-17T23:56:50.941Z,3.60
2023-04-17T23:59:19.271Z,4.97
